createdAt,value
2023-02-11T00:00:51.282Z,7.68
2023-02-11T00:04:52.923Z,7.83
2023-02-11T00:08:55.428Z,7.94
2023-02-11T00:12:56.894Z,7.87
2023-02-11T00:16:58.479Z,8.04
2023-02-11T00:20:59.980Z,8.28
2023-02-11T00:25:01.423Z,8.11
2023-02-11T00:29:04.700Z,8.09
2023-02-11T00:33:06.410Z,8.02
2023-02-11T00:37:07.919Z,8.19
2023-02-11T00:41:09.350Z,8.24
2023-02-11T00:45:10.843Z,8.15
2023-02-11T00:49:12.333Z,8.01
2023-02-11T00:53:13.839Z,8.32
2023-02-11T00:57:15.277Z,8.40
2023-02-11T01:01:17.562Z,8.47
2023-02-11T01:05:20.053Z,8.51
2023-02-11T01:09:23.122Z,8.43
2023-02-11T01:13:25.754Z,8.34
2023-02-11T01:17:28.833Z,8.45
2023-02-11T01:21:30.590Z,8.35
2023-02-11T01:25:32.102Z,8.55
2023-02-11T01:29:33.599Z,8.29
2023-02-11T01:33:35.322Z,8.42
2023-02-11T01:37:36.877Z,8.33
2023-02-11T01:41:38.649Z,8.24
2023-02-11T01:45:57.109Z,8.57
2023-02-11T01:50:02.194Z,8.23
2023-02-11T01:54:25.772Z,8.31
2023-02-11T01:58:30.072Z,8.40
2023-02-11T02:02:58.518Z,8.47
2023-02-11T02:07:06.580Z,8.32
2023-02-11T02:11:10.863Z,8.42
2023-02-11T02:15:19.669Z,8.53
2023-02-11T02:19:51.905Z,8.46
2023-02-11T02:24:14.703Z,8.67
2023-02-11T02:29:00.411Z,8.64
2023-02-11T02:33:23.698Z,8.50
2023-02-11T02:37:34.445Z,8.37
2023-02-11T02:41:39.281Z,8.29
2023-02-11T02:45:41.034Z,8.25
2023-02-11T02:49:42.559Z,8.33
2023-02-11T02:54:05.768Z,8.22
2023-02-11T02:58:23.773Z,8.67
2023-02-11T03:02:36.294Z,8.39
2023-02-11T03:06:54.817Z,8.63
2023-02-11T03:10:57.285Z,8.50
2023-02-11T03:14:59.769Z,8.52
2023-02-11T03:19:10.933Z,8.37
2023-02-11T03:23:21.536Z,8.37
2023-02-11T03:27:47.498Z,8.47
2023-02-11T03:32:16.141Z,8.48
2023-02-11T03:36:24.057Z,8.54
2023-02-11T03:40:29.536Z,8.64
2023-02-11T03:44:37.353Z,8.51
2023-02-11T03:48:45.809Z,8.63
2023-02-11T03:52:49.809Z,8.57
2023-02-11T03:56:54.430Z,8.80
2023-02-11T04:00:56.028Z,8.99
2023-02-11T04:04:57.769Z,9.01
2023-02-11T04:08:59.183Z,9.11
2023-02-11T04:13:00.759Z,8.91
2023-02-11T04:17:02.670Z,8.98
2023-02-11T04:21:04.246Z,9.17
2023-02-11T04:25:06.461Z,9.12
2023-02-11T04:29:08.065Z,8.94
2023-02-11T04:33:09.543Z,8.94
2023-02-11T04:37:10.981Z,8.84
2023-02-11T04:41:12.443Z,9.11
2023-02-11T04:45:13.966Z,8.96
2023-02-11T04:49:17.155Z,8.92
2023-02-11T04:53:18.643Z,8.89
2023-02-11T04:57:20.081Z,8.96
2023-02-11T05:01:21.576Z,8.90
2023-02-11T05:05:24.386Z,9.10
2023-02-11T05:09:31.501Z,9.03
2023-02-11T05:13:59.538Z,9.07
2023-02-11T05:18:01.764Z,9.09
2023-02-11T05:22:19.901Z,9.08
2023-02-11T05:26:21.710Z,9.04
2023-02-11T05:30:23.271Z,9.21
2023-02-11T05:34:24.852Z,9.36
2023-02-11T05:38:26.839Z,9.28
2023-02-11T05:42:28.385Z,9.23
2023-02-11T05:46:41.838Z,9.37
2023-02-11T05:55:32.091Z,9.55
2023-02-11T05:59:33.666Z,9.42
2023-02-11T06:03:35.922Z,9.55
2023-02-11T06:07:38.449Z,9.78
2023-02-11T06:11:40.279Z,9.62
2023-02-11T06:15:42.586Z,9.69
2023-02-11T06:20:20.481Z,9.66
2023-02-11T06:24:47.734Z,9.37
2023-02-11T06:28:43.821Z,9.42
2023-02-11T06:32:46.210Z,9.70
2023-02-11T06:36:55.758Z,9.74
2023-02-11T06:40:57.619Z,10.03
2023-02-11T06:44:59.229Z,9.80
2023-02-11T06:49:00.799Z,9.76
2023-02-11T06:53:02.350Z,9.85
2023-02-11T06:57:04.033Z,9.64
2023-02-11T07:01:07.785Z,9.96
2023-02-11T07:05:09.950Z,9.80
2023-02-11T07:09:11.895Z,9.87
2023-02-11T07:13:13.534Z,9.92
2023-02-11T07:17:15.050Z,9.90
2023-02-11T07:21:19.894Z,9.78
2023-02-11T07:25:24.123Z,9.89
2023-02-11T07:29:25.869Z,9.85
2023-02-11T07:33:27.497Z,10.04
2023-02-11T07:37:53.386Z,10.01
2023-02-11T07:41:55.135Z,10.04
2023-02-11T07:45:57.849Z,9.96
2023-02-11T07:49:59.424Z,10.09
2023-02-11T07:54:01.306Z,10.28
2023-02-11T07:58:02.845Z,10.55
2023-02-11T08:02:04.386Z,10.19
2023-02-11T08:06:08.808Z,10.15
2023-02-11T08:10:10.532Z,10.20
2023-02-11T08:14:16.420Z,10.35
2023-02-11T08:18:18.099Z,10.43
2023-02-11T08:22:19.621Z,10.36
2023-02-11T08:26:25.419Z,10.13
2023-02-11T08:30:27.654Z,10.18
2023-02-11T08:34:29.156Z,10.22
2023-02-11T08:38:45.805Z,10.13
2023-02-11T08:42:47.532Z,10.14
2023-02-11T08:46:50.293Z,10.56
2023-02-11T08:50:51.785Z,10.35
2023-02-11T08:54:53.337Z,10.63
2023-02-11T08:58:54.865Z,10.70
2023-02-11T09:02:56.359Z,10.39
2023-02-11T09:06:57.980Z,10.43
2023-02-11T09:11:03.126Z,10.38
2023-02-11T09:15:04.963Z,10.46
2023-02-11T09:19:06.448Z,10.80
2023-02-11T09:23:07.886Z,11.02
2023-02-11T09:33:00.465Z,11.12
2023-02-11T09:37:03.522Z,11.32
2023-02-11T09:41:07.619Z,10.96
2023-02-11T09:45:16.568Z,11.60
2023-02-11T09:49:24.721Z,11.43
2023-02-11T09:53:27.500Z,11.37
2023-02-11T09:57:33.970Z,11.24
2023-02-11T10:01:46.103Z,11.16
2023-02-11T10:06:14.784Z,11.00
2023-02-11T10:10:37.796Z,10.93
2023-02-11T10:14:54.570Z,10.88
2023-02-11T10:19:25.043Z,10.91
2023-02-11T10:23:33.017Z,10.90
2023-02-11T10:27:36.085Z,11.00
2023-02-11T10:31:42.237Z,11.03
2023-02-11T10:35:43.897Z,11.30
2023-02-11T10:39:48.476Z,11.30
2023-02-11T10:43:50.906Z,11.36
2023-02-11T10:47:52.373Z,11.44
2023-02-11T10:52:14.132Z,11.40
2023-02-11T10:56:27.715Z,11.28
2023-02-11T11:00:43.510Z,11.60
2023-02-11T11:04:45.865Z,11.72
2023-02-11T11:08:50.166Z,11.51
2023-02-11T11:12:51.723Z,11.48
2023-02-11T11:16:56.445Z,11.56
2023-02-11T11:21:05.645Z,11.79
2023-02-11T11:25:22.196Z,11.61
2023-02-11T11:29:48.112Z,11.54
2023-02-11T11:33:53.510Z,11.39
2023-02-11T11:38:01.917Z,11.50
2023-02-11T11:42:21.821Z,11.23
2023-02-11T11:46:26.984Z,11.02
2023-02-11T11:50:45.725Z,11.20
2023-02-11T11:55:04.797Z,11.07
2023-02-11T11:59:13.456Z,11.06
2023-02-11T12:03:52.275Z,11.03
2023-02-11T12:08:31.200Z,11.00
2023-02-11T12:12:55.386Z,10.93
2023-02-11T12:17:09.016Z,10.96
2023-02-11T12:21:42.887Z,10.83
2023-02-11T12:26:18.880Z,10.82
2023-02-11T12:30:38.388Z,10.84
2023-02-11T12:35:01.378Z,10.79
2023-02-11T12:39:29.486Z,10.77
2023-02-11T12:43:39.551Z,11.03
2023-02-11T12:48:10.525Z,10.87
2023-02-11T12:52:14.674Z,10.98
2023-02-11T12:56:45.225Z,11.01
2023-02-11T13:06:49.015Z,11.38
2023-02-11T13:10:52.979Z,11.32
2023-02-11T13:15:01.875Z,11.43
2023-02-11T13:19:34.364Z,11.29
2023-02-11T13:23:57.877Z,11.25
2023-02-11T13:28:23.148Z,11.29
2023-02-11T13:33:03.164Z,11.25
2023-02-11T13:37:04.806Z,11.16
2023-02-11T13:41:26.061Z,11.21
2023-02-11T13:45:44.560Z,11.24
2023-02-11T13:49:54.296Z,11.26
2023-02-11T13:53:57.276Z,11.14
2023-02-11T13:58:08.444Z,11.30
2023-02-11T14:02:44.515Z,11.05
2023-02-11T14:07:47.338Z,11.11
2023-02-11T14:12:43.716Z,11.01
2023-02-11T14:17:00.889Z,11.06
2023-02-11T14:21:11.768Z,11.10
2023-02-11T14:25:21.878Z,11.19
2023-02-11T14:29:45.703Z,11.17
2023-02-11T14:34:08.047Z,11.11
2023-02-11T14:38:23.890Z,11.19
2023-02-11T14:42:28.967Z,11.20
2023-02-11T14:46:35.416Z,10.88
2023-02-11T14:51:02.896Z,10.94
2023-02-11T14:55:29.011Z,11.10
2023-02-11T14:59:30.438Z,10.68
2023-02-11T15:03:40.110Z,10.76
2023-02-11T15:07:55.829Z,10.83
2023-02-11T15:11:58.601Z,10.85
2023-02-11T15:16:11.516Z,10.80
2023-02-11T15:20:21.980Z,10.87
2023-02-11T15:24:28.190Z,10.80
2023-02-11T15:28:34.895Z,10.72
2023-02-11T15:32:37.070Z,10.64
2023-02-11T15:36:38.639Z,10.67
2023-02-11T15:40:40.199Z,10.48
2023-02-11T15:44:41.665Z,10.38
2023-02-11T15:48:53.793Z,10.56
2023-02-11T15:52:57.411Z,10.39
2023-02-11T15:57:07.379Z,10.53
2023-02-11T16:01:10.088Z,10.49
2023-02-11T16:05:35.700Z,10.26
2023-02-11T16:09:37.226Z,10.22
2023-02-11T16:13:47.203Z,10.30
2023-02-11T16:17:48.777Z,10.18
2023-02-11T16:21:50.844Z,9.96
2023-02-11T16:26:22.988Z,9.96
2023-02-11T16:35:18.720Z,9.68
2023-02-11T16:39:22.772Z,9.74
2023-02-11T16:43:24.383Z,9.41
2023-02-11T16:47:27.981Z,9.48
2023-02-11T16:51:29.410Z,9.44
2023-02-11T16:55:32.470Z,9.43
2023-02-11T16:59:34.132Z,9.39
2023-02-11T17:03:40.396Z,9.51
2023-02-11T17:07:41.829Z,9.48
2023-02-11T17:11:43.296Z,9.29
2023-02-11T17:15:44.759Z,9.47
2023-02-11T17:25:45.562Z,9.41
2023-02-11T17:30:47.883Z,9.34
2023-02-11T17:34:50.167Z,9.44
2023-02-11T17:38:52.016Z,9.39
2023-02-11T17:42:53.455Z,9.27
2023-02-11T17:46:54.942Z,9.27
2023-02-11T17:50:56.419Z,9.27
2023-02-11T17:54:58.076Z,9.34
2023-02-11T17:58:59.614Z,9.25
2023-02-11T18:03:04.117Z,9.24
2023-02-11T18:07:06.103Z,9.26
2023-02-11T18:11:12.716Z,9.28
2023-02-11T18:15:14.148Z,9.39
2023-02-11T18:19:15.599Z,9.46
2023-02-11T18:23:17.134Z,9.39
2023-02-11T18:27:18.752Z,9.37
2023-02-11T18:31:21.884Z,9.24
2023-02-11T18:35:23.716Z,9.32
2023-02-11T18:39:26.368Z,9.33
2023-02-11T18:43:31.667Z,9.39
2023-02-11T18:47:33.256Z,9.35
2023-02-11T18:51:34.733Z,9.44
2023-02-11T18:55:39.913Z,9.43
2023-02-11T18:59:41.330Z,9.41
2023-02-11T19:03:44.260Z,9.31
2023-02-11T19:07:45.739Z,9.26
2023-02-11T19:11:47.273Z,9.08
2023-02-11T19:15:48.752Z,9.16
2023-02-11T19:19:50.354Z,9.07
2023-02-11T19:23:51.823Z,9.24
2023-02-11T19:27:53.355Z,9.25
2023-02-11T19:31:55.304Z,9.11
2023-02-11T19:36:02.780Z,9.12
2023-02-11T19:40:05.253Z,9.20
2023-02-11T19:44:07.780Z,9.11
2023-02-11T19:48:12.789Z,9.25
2023-02-11T19:52:14.284Z,9.15
2023-02-11T19:56:16.036Z,9.08
2023-02-11T20:00:18.061Z,8.99
2023-02-11T20:04:19.798Z,8.94
2023-02-11T20:08:21.223Z,9.04
2023-02-11T20:12:22.635Z,9.13
2023-02-11T20:16:40.745Z,9.15
2023-02-11T20:20:47.963Z,8.98
2023-02-11T20:24:49.485Z,8.97
2023-02-11T20:28:52.344Z,9.05
2023-02-11T20:32:53.802Z,8.91
2023-02-11T20:36:55.915Z,8.89
2023-02-11T20:41:05.960Z,8.94
2023-02-11T20:45:07.833Z,8.76
2023-02-11T20:49:14.485Z,8.89
2023-02-11T20:53:15.926Z,8.81
2023-02-11T20:57:17.498Z,8.94
2023-02-11T21:01:22.330Z,8.78
2023-02-11T21:05:23.778Z,8.80
2023-02-11T21:09:27.980Z,8.91
2023-02-11T21:13:29.525Z,8.84
2023-02-11T21:17:31.986Z,8.83
2023-02-11T21:21:36.175Z,8.64
2023-02-11T21:25:37.611Z,8.86
2023-02-11T21:29:52.752Z,8.89
2023-02-11T21:33:55.983Z,8.76
2023-02-11T21:37:57.442Z,8.88
2023-02-11T21:41:59.145Z,8.97
2023-02-11T21:46:01.042Z,8.84
2023-02-11T21:50:02.498Z,8.87
2023-02-11T21:54:04.288Z,8.82
2023-02-11T21:58:06.710Z,8.72
2023-02-11T22:02:09.569Z,8.94
2023-02-11T22:06:18.009Z,8.74
2023-02-11T22:10:19.542Z,8.64
2023-02-11T22:14:21.001Z,8.74
2023-02-11T22:18:22.438Z,8.84
2023-02-11T22:22:24.183Z,8.96
2023-02-11T22:26:27.707Z,8.86
2023-02-11T22:30:29.120Z,8.88
2023-02-11T22:34:30.633Z,8.93
2023-02-11T22:38:33.961Z,8.90
2023-02-11T22:42:35.410Z,8.91
2023-02-11T22:46:37.521Z,8.89
2023-02-11T22:50:38.950Z,8.97
2023-02-11T22:54:40.380Z,9.08
2023-02-11T22:58:41.870Z,8.84
2023-02-11T23:02:43.455Z,8.99
2023-02-11T23:06:47.525Z,9.02
2023-02-11T23:10:49.389Z,8.95
2023-02-11T23:14:51.234Z,8.91
2023-02-11T23:18:53.151Z,8.92
2023-02-11T23:22:55.056Z,8.87
2023-02-11T23:26:56.462Z,8.77
2023-02-11T23:30:57.904Z,8.89
2023-02-11T23:34:59.451Z,8.67
2023-02-11T23:39:00.943Z,8.96
2023-02-11T23:43:02.452Z,8.92
2023-02-11T23:47:04.656Z,8.89
2023-02-11T23:51:06.716Z,8.94
2023-02-11T23:55:09.429Z,8.91
2023-02-11T23:59:11.553Z,8.97
